createdAt,value
2022-12-31T00:01:55.360Z,101313.72
2022-12-31T00:04:22.353Z,101317.25
2022-12-31T00:06:49.158Z,101317.22
2022-12-31T00:09:15.985Z,101315.44
2022-12-31T00:11:42.913Z,101322.53
2022-12-31T00:14:09.834Z,101319.03
2022-12-31T00:16:39.484Z,101312.91
2022-12-31T00:19:08.484Z,101324.34
2022-12-31T00:21:36.164Z,101319.09
2022-12-31T00:24:04.556Z,101320.03
2022-12-31T00:26:32.926Z,101327.91
2022-12-31T00:29:00.795Z,101329.66
2022-12-31T00:31:33.310Z,101327.06
2022-12-31T00:34:00.736Z,101327.88
2022-12-31T00:36:33.566Z,101327.06
2022-12-31T00:39:01.814Z,101334.06
2022-12-31T00:41:29.331Z,101336.81
2022-12-31T00:43:56.311Z,101334.16
2022-12-31T00:46:23.931Z,101341.19
2022-12-31T00:48:51.135Z,101353.66
2022-12-31T00:51:19.954Z,101357.09
2022-12-31T00:53:46.951Z,101367.59
2022-12-31T00:56:19.408Z,101363.25
2022-12-31T00:58:46.793Z,101364.25
2022-12-31T01:01:18.556Z,101375.87
2022-12-31T01:03:46.232Z,101372.37
2022-12-31T01:06:13.748Z,101371.63
2022-12-31T01:08:40.887Z,101360.03
2022-12-31T01:11:19.793Z,101370.66
2022-12-31T01:13:58.288Z,101369.78
2022-12-31T01:16:37.170Z,101372.53
2022-12-31T01:19:06.977Z,101369.16
2022-12-31T01:21:35.204Z,101384.03
2022-12-31T01:24:02.213Z,101373.53
2022-12-31T01:26:29.543Z,101364.78
2022-12-31T01:28:56.615Z,101377.94
2022-12-31T01:31:24.489Z,101374.41
2022-12-31T01:33:52.226Z,101381.44
2022-12-31T01:36:26.151Z,101377.94
2022-12-31T01:38:54.979Z,101384.09
2022-12-31T01:41:30.458Z,101377.06
2022-12-31T01:44:01.198Z,101393.84
2022-12-31T01:46:37.179Z,101394.69
2022-12-31T01:49:41.858Z,101394.56
2022-12-31T01:52:23.936Z,101386.63
2022-12-31T01:55:03.787Z,101382.06
2022-12-31T01:57:31.421Z,101378.78
2022-12-31T01:59:59.091Z,101379.59
2022-12-31T02:02:26.214Z,101387.69
2022-12-31T02:04:55.263Z,101384.88
2022-12-31T02:07:22.921Z,101376.06
2022-12-31T02:09:49.803Z,101381.25
2022-12-31T02:12:16.642Z,101379.53
2022-12-31T02:14:46.198Z,101378.66
2022-12-31T02:17:28.100Z,101376.75
2022-12-31T02:20:31.117Z,101374.16
2022-12-31T02:23:25.197Z,101368.84
2022-12-31T02:26:19.670Z,101382.97
2022-12-31T02:29:28.214Z,101387.56
2022-12-31T02:31:58.231Z,101388.41
2022-12-31T02:34:32.100Z,101388.50
2022-12-31T02:37:00.943Z,101380.56
2022-12-31T02:39:28.659Z,101385.75
2022-12-31T02:41:55.468Z,101379.53
2022-12-31T02:44:33.435Z,101388.41
2022-12-31T02:47:10.478Z,101385.75
2022-12-31T02:49:58.897Z,101388.41
2022-12-31T02:53:03.957Z,101363.91
2022-12-31T02:55:42.547Z,101372.56
2022-12-31T02:58:09.359Z,101363.75
2022-12-31T03:00:59.632Z,101366.38
2022-12-31T03:03:27.424Z,101367.41
2022-12-31T03:05:54.914Z,101360.28
2022-12-31T03:08:26.238Z,101358.50
2022-12-31T03:10:53.138Z,101362.03
2022-12-31T03:13:20.038Z,101349.69
2022-12-31T03:15:46.917Z,101352.31
2022-12-31T03:18:16.352Z,101355.06
2022-12-31T03:21:07.563Z,101354.31
2022-12-31T03:23:39.904Z,101365.66
2022-12-31T03:26:12.203Z,101380.69
2022-12-31T03:28:41.689Z,101378.00
2022-12-31T03:31:08.988Z,101370.88
2022-12-31T03:33:38.305Z,101377.00
2022-12-31T03:36:08.406Z,101363.06
2022-12-31T03:38:35.659Z,101356.66
2022-12-31T03:41:03.102Z,101350.56
2022-12-31T03:43:30.197Z,101357.62
2022-12-31T03:45:59.840Z,101355.91
2022-12-31T03:48:27.156Z,101361.94
2022-12-31T03:50:54.199Z,101360.28
2022-12-31T03:53:21.645Z,101370.72
2022-12-31T03:55:52.745Z,101374.22
2022-12-31T03:58:20.272Z,101377.78
2022-12-31T04:00:47.255Z,101379.59
2022-12-31T04:03:14.180Z,101371.56
2022-12-31T04:05:41.364Z,101369.69
2022-12-31T04:08:08.373Z,101363.59
2022-12-31T04:10:35.323Z,101361.81
2022-12-31T04:13:04.778Z,101369.91
2022-12-31T04:15:32.205Z,101373.31
2022-12-31T04:17:59.107Z,101372.34
2022-12-31T04:20:26.178Z,101371.44
2022-12-31T04:22:53.135Z,101382.03
2022-12-31T04:25:20.131Z,101392.59
2022-12-31T04:27:47.213Z,101389.87
2022-12-31T04:30:14.546Z,101389.87
2022-12-31T04:32:41.630Z,101386.31
2022-12-31T04:35:09.592Z,101385.44
2022-12-31T04:37:36.514Z,101363.63
2022-12-31T04:40:06.378Z,101401.34
2022-12-31T04:42:34.826Z,101409.31
2022-12-31T04:45:01.811Z,101406.66
2022-12-31T04:47:28.668Z,101414.62
2022-12-31T04:49:55.801Z,101407.59
2022-12-31T04:52:22.728Z,101420.03
2022-12-31T04:54:49.823Z,101417.31
2022-12-31T04:57:16.841Z,101419.00
2022-12-31T04:59:44.103Z,101424.34
2022-12-31T05:02:11.174Z,101420.88
2022-12-31T05:04:38.206Z,101430.53
2022-12-31T05:07:05.121Z,101434.06
2022-12-31T05:09:32.296Z,101433.13
2022-12-31T05:11:59.266Z,101433.13
2022-12-31T05:14:26.681Z,101416.41
2022-12-31T05:16:53.819Z,101426.22
2022-12-31T05:19:21.231Z,101431.47
2022-12-31T05:22:08.498Z,101439.44
2022-12-31T05:24:35.529Z,101446.50
2022-12-31T05:27:02.493Z,101447.37
2022-12-31T05:29:29.407Z,101443.81
2022-12-31T05:31:56.285Z,101438.56
2022-12-31T05:34:23.236Z,101445.59
2022-12-31T05:36:50.100Z,101449.12
2022-12-31T05:39:17.101Z,101449.09
2022-12-31T05:41:44.204Z,101443.87
2022-12-31T05:44:11.212Z,101432.44
2022-12-31T05:46:38.177Z,101445.59
2022-12-31T05:49:05.391Z,101441.22
2022-12-31T05:51:32.376Z,101455.34
2022-12-31T05:53:59.320Z,101450.00
2022-12-31T05:56:26.386Z,101447.28
2022-12-31T05:58:53.228Z,101446.47
2022-12-31T06:01:20.145Z,101462.25
2022-12-31T06:03:47.376Z,101464.00
2022-12-31T06:06:14.290Z,101463.91
2022-12-31T06:08:41.567Z,101467.44
2022-12-31T06:11:08.602Z,101467.44
2022-12-31T06:13:35.423Z,101461.28
2022-12-31T06:16:10.139Z,101450.66
2022-12-31T06:18:37.440Z,101457.84
2022-12-31T06:21:04.722Z,101460.50
2022-12-31T06:23:31.876Z,101460.47
2022-12-31T06:26:03.413Z,101453.31
2022-12-31T06:28:30.386Z,101450.72
2022-12-31T06:31:05.176Z,101452.44
2022-12-31T06:33:36.360Z,101463.91
2022-12-31T06:36:07.040Z,101475.53
2022-12-31T06:38:36.560Z,101480.78
2022-12-31T06:41:07.293Z,101478.91
2022-12-31T06:43:35.261Z,101480.66
2022-12-31T06:46:03.333Z,101477.13
2022-12-31T06:48:30.456Z,101478.00
2022-12-31T06:50:57.716Z,101485.94
2022-12-31T06:53:24.605Z,101476.25
2022-12-31T06:55:51.673Z,101489.53
2022-12-31T06:58:18.761Z,101497.50
2022-12-31T07:00:55.182Z,101498.34
2022-12-31T07:03:45.725Z,101499.22
2022-12-31T07:06:16.680Z,101502.72
2022-12-31T07:09:09.820Z,101499.16
2022-12-31T07:11:48.007Z,101506.31
2022-12-31T07:14:35.564Z,101501.87
2022-12-31T07:17:14.484Z,101502.72
2022-12-31T07:19:57.849Z,101492.94
2022-12-31T07:22:25.382Z,101506.19
2022-12-31T07:24:52.461Z,101511.50
2022-12-31T07:27:34.453Z,101515.94
2022-12-31T07:30:04.672Z,101512.41
2022-12-31T07:32:52.622Z,101512.44
2022-12-31T07:35:29.718Z,101523.84
2022-12-31T07:38:05.280Z,101520.25
2022-12-31T07:41:10.233Z,101514.87
2022-12-31T07:43:52.564Z,101523.66
2022-12-31T07:46:41.417Z,101519.22
2022-12-31T07:49:12.503Z,101523.59
2022-12-31T07:51:40.009Z,101518.34
2022-12-31T07:54:13.430Z,101529.69
2022-12-31T07:56:41.727Z,101549.97
2022-12-31T07:59:44.581Z,101536.69
2022-12-31T08:02:34.457Z,101547.97
2022-12-31T08:05:16.533Z,101551.44
2022-12-31T08:07:58.527Z,101539.16
2022-12-31T08:10:31.844Z,101541.53
2022-12-31T08:13:02.788Z,101538.69
2022-12-31T08:15:30.947Z,101538.56
2022-12-31T08:17:58.305Z,101537.59
2022-12-31T08:20:26.339Z,101526.00
2022-12-31T08:23:11.764Z,101533.94
2022-12-31T08:25:47.794Z,101533.94
2022-12-31T08:28:41.623Z,101548.97
2022-12-31T08:31:19.832Z,101549.81
2022-12-31T08:34:12.276Z,101566.50
2022-12-31T08:36:45.882Z,101574.53
2022-12-31T08:39:34.781Z,101569.06
2022-12-31T08:42:25.523Z,101555.66
2022-12-31T08:45:09.209Z,101566.22
2022-12-31T08:47:39.335Z,101568.81
2022-12-31T08:50:13.032Z,101569.72
2022-12-31T08:52:40.419Z,101589.22
2022-12-31T08:55:08.586Z,101590.94
2022-12-31T08:57:58.401Z,101586.59
2022-12-31T09:00:26.867Z,101599.91
2022-12-31T09:03:05.555Z,101598.25
2022-12-31T09:06:02.400Z,101602.81
2022-12-31T09:08:44.153Z,101611.81
2022-12-31T09:11:20.835Z,101600.91
2022-12-31T09:14:14.053Z,101588.63
2022-12-31T09:17:16.024Z,101583.16
2022-12-31T09:19:44.106Z,101564.47
2022-12-31T09:22:11.386Z,101570.72
2022-12-31T09:24:40.658Z,101578.66
2022-12-31T09:27:28.463Z,101571.69
2022-12-31T09:30:17.912Z,101567.34
2022-12-31T09:33:09.087Z,101564.84
2022-12-31T09:35:56.968Z,101558.25
2022-12-31T09:38:32.790Z,101558.13
2022-12-31T09:41:15.829Z,101541.41
2022-12-31T09:44:07.372Z,101538.47
2022-12-31T09:47:01.815Z,101538.63
2022-12-31T09:49:56.178Z,101537.63
2022-12-31T09:52:32.826Z,101532.00
2022-12-31T09:55:22.201Z,101528.53
2022-12-31T09:58:18.900Z,101527.44
2022-12-31T10:01:24.708Z,101530.91
2022-12-31T10:04:23.470Z,101533.56
2022-12-31T10:07:07.801Z,101539.50
2022-12-31T10:09:51.158Z,101535.13
2022-12-31T10:12:54.080Z,101545.00
2022-12-31T10:15:39.831Z,101528.37
2022-12-31T10:18:44.098Z,101530.66
2022-12-31T10:21:57.155Z,101536.06
2022-12-31T10:24:36.725Z,101531.38
2022-12-31T10:27:21.987Z,101519.94
2022-12-31T10:30:13.144Z,101523.44
2022-12-31T10:33:01.658Z,101525.91
2022-12-31T10:35:36.283Z,101530.50
2022-12-31T10:38:16.297Z,101527.63
2022-12-31T10:41:01.837Z,101532.25
2022-12-31T10:44:08.567Z,101526.72
2022-12-31T10:46:57.875Z,101527.69
2022-12-31T10:50:01.842Z,101522.22
2022-12-31T10:52:59.512Z,101526.50
2022-12-31T10:55:29.897Z,101518.84
2022-12-31T10:58:20.184Z,101519.78
2022-12-31T11:01:24.629Z,101526.47
2022-12-31T11:04:05.452Z,101528.03
2022-12-31T11:06:41.242Z,101536.69
2022-12-31T11:09:51.151Z,101542.44
2022-12-31T11:12:36.810Z,101539.63
2022-12-31T11:15:50.386Z,101532.44
2022-12-31T11:19:25.404Z,101535.94
2022-12-31T11:22:13.716Z,101531.56
2022-12-31T11:25:04.121Z,101522.56
2022-12-31T11:28:05.638Z,101526.00
2022-12-31T11:30:47.800Z,101525.69
2022-12-31T11:33:39.400Z,101518.66
2022-12-31T11:36:12.236Z,101529.97
2022-12-31T11:38:50.906Z,101532.13
2022-12-31T11:41:43.137Z,101526.38
2022-12-31T11:44:12.942Z,101515.47
2022-12-31T11:46:45.814Z,101509.38
2022-12-31T11:49:46.163Z,101511.94
2022-12-31T11:52:41.147Z,101511.78
2022-12-31T11:55:37.832Z,101538.31
2022-12-31T11:58:20.460Z,101532.78
2022-12-31T12:01:11.742Z,101524.81
2022-12-31T12:03:43.253Z,101516.78
2022-12-31T12:06:15.954Z,101520.25
2022-12-31T12:08:44.314Z,101520.34
2022-12-31T12:11:27.757Z,101510.25
2022-12-31T12:13:54.548Z,101506.03
2022-12-31T12:16:22.414Z,101502.53
2022-12-31T12:19:17.184Z,101496.09
2022-12-31T12:21:48.266Z,101505.69
2022-12-31T12:24:29.623Z,101492.28
2022-12-31T12:26:57.500Z,101497.69
2022-12-31T12:29:36.798Z,101500.09
2022-12-31T12:32:38.204Z,101511.50
2022-12-31T12:35:16.145Z,101497.25
2022-12-31T12:37:43.094Z,101488.16
2022-12-31T12:40:20.859Z,101488.94
2022-12-31T12:42:48.719Z,101493.28
2022-12-31T12:45:23.130Z,101493.00
2022-12-31T12:48:02.238Z,101490.25
2022-12-31T12:50:44.538Z,101492.03
2022-12-31T12:53:20.106Z,101503.50
2022-12-31T12:56:12.751Z,101495.66
2022-12-31T12:59:11.211Z,101488.72
2022-12-31T13:02:04.176Z,101492.53
2022-12-31T13:04:37.095Z,101485.84
2022-12-31T13:07:46.885Z,101477.66
2022-12-31T13:10:49.255Z,101486.09
2022-12-31T13:13:24.372Z,101481.41
2022-12-31T13:15:58.958Z,101483.12
2022-12-31T13:18:39.599Z,101479.38
2022-12-31T13:21:27.896Z,101483.66
2022-12-31T13:24:01.217Z,101484.59
2022-12-31T13:26:36.185Z,101489.75
2022-12-31T13:29:03.900Z,101492.34
2022-12-31T13:31:34.702Z,101485.16
2022-12-31T13:34:06.603Z,101486.19
2022-12-31T13:36:35.783Z,101485.91
2022-12-31T13:39:06.128Z,101497.50
2022-12-31T13:41:43.417Z,101489.50
2022-12-31T13:44:36.983Z,101493.94
2022-12-31T13:47:06.056Z,101505.34
2022-12-31T13:50:20.552Z,101508.69
2022-12-31T13:53:16.527Z,101514.13
2022-12-31T13:55:56.655Z,101515.56
2022-12-31T13:58:35.976Z,101520.81
2022-12-31T14:01:30.705Z,101516.62
2022-12-31T14:04:39.910Z,101508.78
2022-12-31T14:07:20.150Z,101509.50
2022-12-31T14:09:47.004Z,101511.41
2022-12-31T14:12:19.932Z,101515.13
2022-12-31T14:15:10.881Z,101502.03
2022-12-31T14:18:17.879Z,101501.19
2022-12-31T14:20:55.903Z,101501.84
2022-12-31T14:23:45.647Z,101499.13
2022-12-31T14:26:27.726Z,101514.25
2022-12-31T14:29:11.018Z,101523.94
2022-12-31T14:31:58.996Z,101518.59
2022-12-31T14:34:42.454Z,101517.59
2022-12-31T14:37:34.238Z,101518.53
2022-12-31T14:40:28.154Z,101516.72
2022-12-31T14:43:19.548Z,101515.13
2022-12-31T14:46:02.250Z,101528.50
2022-12-31T14:48:39.081Z,101523.28
2022-12-31T14:51:06.877Z,101522.44
2022-12-31T14:53:34.445Z,101519.88
2022-12-31T14:56:25.877Z,101513.72
2022-12-31T14:59:02.638Z,101532.56
2022-12-31T15:01:29.926Z,101533.56
2022-12-31T15:03:58.404Z,101537.19
2022-12-31T15:06:48.519Z,101536.38
2022-12-31T15:10:04.914Z,101530.12
2022-12-31T15:12:57.019Z,101538.13
2022-12-31T15:15:34.608Z,101550.12
2022-12-31T15:18:23.781Z,101546.53
2022-12-31T15:21:28.763Z,101545.56
2022-12-31T15:23:56.636Z,101542.81
2022-12-31T15:26:25.926Z,101539.22
2022-12-31T15:29:07.620Z,101541.87
2022-12-31T15:31:35.891Z,101538.31
2022-12-31T15:34:07.431Z,101554.34
2022-12-31T15:36:52.816Z,101545.41
2022-12-31T15:39:45.710Z,101559.75
2022-12-31T15:42:45.880Z,101560.69
2022-12-31T15:45:48.593Z,101587.28
2022-12-31T15:48:19.185Z,101573.09
2022-12-31T15:50:46.690Z,101571.28
2022-12-31T15:53:31.757Z,101570.44
2022-12-31T15:55:59.828Z,101560.78
2022-12-31T15:58:30.577Z,101559.88
2022-12-31T16:01:07.290Z,101556.41
2022-12-31T16:03:35.147Z,101568.97
2022-12-31T16:06:10.983Z,101570.06
2022-12-31T16:08:39.456Z,101568.38
2022-12-31T16:11:08.159Z,101541.50
2022-12-31T16:13:39.500Z,101572.22
2022-12-31T16:16:15.684Z,101575.09
2022-12-31T16:18:43.967Z,101564.31
2022-12-31T16:21:28.510Z,101551.97
2022-12-31T16:23:57.803Z,101564.53
2022-12-31T16:26:49.635Z,101562.69
2022-12-31T16:29:18.725Z,101570.78
2022-12-31T16:31:47.127Z,101576.44
2022-12-31T16:34:17.376Z,101572.84
2022-12-31T16:37:02.485Z,101579.47
2022-12-31T16:39:37.580Z,101580.44
2022-12-31T16:42:14.103Z,101585.03
2022-12-31T16:44:42.201Z,101580.53
2022-12-31T16:47:19.264Z,101570.78
2022-12-31T16:49:50.607Z,101567.38
2022-12-31T16:52:47.614Z,101569.16
2022-12-31T16:55:18.545Z,101567.59
2022-12-31T16:57:48.696Z,101568.53
2022-12-31T17:00:17.154Z,101567.81
2022-12-31T17:02:55.031Z,101568.84
2022-12-31T17:05:24.380Z,101570.81
2022-12-31T17:07:51.557Z,101572.69
2022-12-31T17:10:23.588Z,101578.84
2022-12-31T17:15:45.670Z,101594.81
2022-12-31T17:18:19.030Z,101601.09
2022-12-31T17:20:46.627Z,101604.72
2022-12-31T17:23:22.906Z,101602.06
2022-12-31T17:25:50.355Z,101604.88
2022-12-31T17:28:24.041Z,101602.28
2022-12-31T17:30:51.152Z,101598.84
2022-12-31T17:33:20.661Z,101599.69
2022-12-31T17:35:48.880Z,101604.16
2022-12-31T17:38:31.767Z,101580.22
2022-12-31T17:41:05.897Z,101578.50
2022-12-31T17:43:35.326Z,101584.69
2022-12-31T17:46:03.735Z,101586.47
2022-12-31T17:48:31.204Z,101570.44
2022-12-31T17:50:59.937Z,101567.78
2022-12-31T17:53:27.152Z,101571.38
2022-12-31T17:55:56.612Z,101574.03
2022-12-31T17:58:29.604Z,101587.34
2022-12-31T18:00:57.905Z,101598.97
2022-12-31T18:03:25.540Z,101592.00
2022-12-31T18:05:52.688Z,101590.13
2022-12-31T18:08:19.673Z,101593.56
2022-12-31T18:10:46.756Z,101596.47
2022-12-31T18:13:17.901Z,101600.25
2022-12-31T18:15:44.899Z,101601.09
2022-12-31T18:18:24.871Z,101601.12
2022-12-31T18:20:54.775Z,101617.84
2022-12-31T18:23:25.755Z,101618.06
2022-12-31T18:25:52.713Z,101640.25
2022-12-31T18:28:20.505Z,101638.41
2022-12-31T18:30:48.199Z,101642.91
2022-12-31T18:33:22.218Z,101642.84
2022-12-31T18:36:09.694Z,101641.06
2022-12-31T18:38:37.529Z,101631.28
2022-12-31T18:41:04.747Z,101640.13
2022-12-31T18:43:32.164Z,101626.91
2022-12-31T18:45:59.997Z,101625.16
2022-12-31T18:48:26.973Z,101642.84
2022-12-31T18:50:54.535Z,101643.81
2022-12-31T18:53:23.193Z,101636.84
2022-12-31T18:55:53.015Z,101625.31
2022-12-31T18:58:20.568Z,101632.47
2022-12-31T19:00:48.131Z,101631.66
2022-12-31T19:03:23.732Z,101624.69
2022-12-31T19:05:51.908Z,101626.72
2022-12-31T19:08:23.048Z,101632.97
2022-12-31T19:10:51.764Z,101646.31
2022-12-31T19:13:20.009Z,101637.59
2022-12-31T19:15:47.903Z,101644.97
2022-12-31T19:18:15.109Z,101644.94
2022-12-31T19:20:42.442Z,101645.03
2022-12-31T19:23:18.108Z,101645.25
2022-12-31T19:25:46.684Z,101636.53
2022-12-31T19:28:22.761Z,101632.91
2022-12-31T19:30:50.499Z,101633.87
2022-12-31T19:33:20.533Z,101633.06
2022-12-31T19:35:53.126Z,101632.19
2022-12-31T19:38:27.785Z,101626.03
2022-12-31T19:40:57.703Z,101609.28
2022-12-31T19:43:28.182Z,101586.53
2022-12-31T19:46:06.159Z,101609.44
2022-12-31T19:48:35.517Z,101608.62
2022-12-31T19:51:03.815Z,101608.88
2022-12-31T19:53:31.860Z,101615.81
2022-12-31T19:56:04.170Z,101616.81
2022-12-31T19:58:33.321Z,101596.50
2022-12-31T20:01:03.181Z,101617.72
2022-12-31T20:03:34.302Z,101583.47
2022-12-31T20:06:05.726Z,101604.69
2022-12-31T20:08:34.845Z,101602.87
2022-12-31T20:11:32.244Z,101616.13
2022-12-31T20:13:59.878Z,101620.56
2022-12-31T20:16:34.821Z,101615.28
2022-12-31T20:19:01.772Z,101616.22
2022-12-31T20:21:29.716Z,101619.78
2022-12-31T20:23:57.455Z,101625.94
2022-12-31T20:26:25.293Z,101619.78
2022-12-31T20:28:53.080Z,101628.59
2022-12-31T20:31:23.248Z,101630.37
2022-12-31T20:33:50.322Z,101630.37
2022-12-31T20:36:17.608Z,101626.03
2022-12-31T20:38:44.681Z,101631.28
2022-12-31T20:41:19.885Z,101634.78
2022-12-31T20:43:47.653Z,101631.28
2022-12-31T20:46:18.863Z,101623.34
2022-12-31T20:48:47.153Z,101622.47
2022-12-31T20:51:15.385Z,101624.31
2022-12-31T20:53:47.906Z,101624.31
2022-12-31T20:56:15.072Z,101617.28
2022-12-31T20:58:42.059Z,101616.41
2022-12-31T21:01:10.798Z,101619.09
2022-12-31T21:06:27.689Z,101628.16
2022-12-31T21:08:55.854Z,101639.06
2022-12-31T21:11:42.007Z,101637.31
2022-12-31T21:14:15.564Z,101637.37
2022-12-31T21:16:43.700Z,101640.06
2022-12-31T21:19:10.740Z,101640.78
2022-12-31T21:21:37.671Z,101647.81
2022-12-31T21:24:05.085Z,101641.66
2022-12-31T21:26:32.146Z,101632.84
2022-12-31T21:28:59.828Z,101647.88
2022-12-31T21:31:26.877Z,101653.31
2022-12-31T21:33:55.602Z,101650.97
2022-12-31T21:36:23.628Z,101656.34
2022-12-31T21:38:50.587Z,101654.69
2022-12-31T21:41:36.421Z,101648.53
2022-12-31T21:44:03.541Z,101656.44
2022-12-31T21:46:30.593Z,101668.72
2022-12-31T21:48:58.624Z,101666.81
2022-12-31T21:51:25.766Z,101673.78
2022-12-31T21:53:55.221Z,101677.28
2022-12-31T21:56:23.052Z,101686.12
2022-12-31T21:59:15.491Z,101678.25
2022-12-31T22:02:01.496Z,101674.78
2022-12-31T22:05:00.891Z,101680.97
2022-12-31T22:07:15.834Z,101665.00
2022-12-31T22:09:43.277Z,101668.56
2022-12-31T22:12:10.177Z,101666.75
2022-12-31T22:15:14.445Z,101665.91
2022-12-31T22:17:27.827Z,101665.00
2022-12-31T22:22:42.151Z,101647.37
2022-12-31T22:25:09.525Z,101656.22
2022-12-31T22:27:36.489Z,101648.25
2022-12-31T22:30:03.874Z,101645.66
2022-12-31T22:32:33.142Z,101641.22
2022-12-31T22:35:00.077Z,101638.62
2022-12-31T22:37:55.792Z,101638.62
2022-12-31T22:40:14.380Z,101645.69
2022-12-31T22:42:41.541Z,101643.94
2022-12-31T22:45:09.078Z,101650.09
2022-12-31T22:47:36.371Z,101647.50
2022-12-31T22:50:03.813Z,101635.25
2022-12-31T22:52:32.210Z,101649.28
2022-12-31T22:54:59.683Z,101653.84
2022-12-31T22:57:26.595Z,101653.91
2022-12-31T22:59:53.649Z,101655.75
2022-12-31T23:02:20.924Z,101651.50
2022-12-31T23:04:47.920Z,101648.94
2022-12-31T23:07:15.421Z,101652.53
2022-12-31T23:10:01.071Z,101642.78
2022-12-31T23:12:28.366Z,101643.56
2022-12-31T23:15:14.091Z,101634.69
2022-12-31T23:18:00.960Z,101635.53
2022-12-31T23:20:46.400Z,101625.78
2022-12-31T23:23:16.862Z,101631.00
2022-12-31T23:25:46.918Z,101629.22
2022-12-31T23:28:17.536Z,101625.72
2022-12-31T23:30:45.271Z,101625.66
2022-12-31T23:33:20.633Z,101622.09
2022-12-31T23:35:47.575Z,101632.59
2022-12-31T23:38:16.823Z,101617.59
2022-12-31T23:40:44.150Z,101619.28
2022-12-31T23:43:19.679Z,101615.81
2022-12-31T23:45:46.534Z,101623.63
2022-12-31T23:48:13.363Z,101637.69
2022-12-31T23:50:40.653Z,101631.53
2022-12-31T23:53:07.876Z,101638.56
2022-12-31T23:55:34.723Z,101643.91
2022-12-31T23:58:01.610Z,101642.94
